createdAt,value
2024-03-05T00:01:25.659Z,96395.56
2024-03-05T00:03:53.209Z,96411.00
2024-03-05T00:06:22.161Z,96409.66
2024-03-05T00:08:49.281Z,96402.91
2024-03-05T00:11:16.353Z,96404.75
2024-03-05T00:13:45.271Z,96404.84
2024-03-05T00:16:12.984Z,96405.03
2024-03-05T00:18:40.411Z,96396.63
2024-03-05T00:21:08.465Z,96401.03
2024-03-05T00:23:37.348Z,96404.66
2024-03-05T00:26:05.137Z,96408.88
2024-03-05T00:28:32.320Z,96409.91
2024-03-05T00:30:59.525Z,96413.47
2024-03-05T00:33:26.834Z,96413.56
2024-03-05T00:35:55.792Z,96415.69
2024-03-05T00:38:28.959Z,96413.19
2024-03-05T00:41:02.407Z,96413.28
2024-03-05T00:43:29.756Z,96416.81
2024-03-05T00:45:57.075Z,96415.16
2024-03-05T00:48:24.410Z,96424.66
2024-03-05T00:50:51.633Z,96420.69
2024-03-05T00:53:19.264Z,96412.16
2024-03-05T00:55:46.362Z,96415.78
2024-03-05T00:58:15.344Z,96413.19
2024-03-05T01:00:43.184Z,96414.84
2024-03-05T01:03:10.499Z,96419.53
2024-03-05T01:05:37.625Z,96423.78
2024-03-05T01:08:05.831Z,96411.78
2024-03-05T01:10:32.978Z,96417.19
2024-03-05T01:13:00.613Z,96420.59
2024-03-05T01:15:29.573Z,96418.94
2024-03-05T01:17:57.175Z,96417.28
2024-03-05T01:20:24.429Z,96417.28
2024-03-05T01:22:51.717Z,96420.78
2024-03-05T01:25:19.294Z,96420.03
2024-03-05T01:27:46.653Z,96421.03
2024-03-05T01:30:13.935Z,96422.13
2024-03-05T01:32:43.273Z,96424.03
2024-03-05T01:35:11.071Z,96424.09
2024-03-05T01:37:38.684Z,96420.69
2024-03-05T01:40:07.511Z,96424.19
2024-03-05T01:42:34.875Z,96425.13
2024-03-05T01:45:02.361Z,96428.53
2024-03-05T01:47:31.204Z,96426.69
2024-03-05T01:50:02.753Z,96417.28
2024-03-05T01:52:30.131Z,96425.03
2024-03-05T01:55:01.649Z,96423.53
2024-03-05T01:57:29.515Z,96417.63
2024-03-05T01:59:56.810Z,96422.88
2024-03-05T02:02:24.639Z,96409.38
2024-03-05T02:04:54.087Z,96417.19
2024-03-05T02:07:25.074Z,96415.63
2024-03-05T02:09:53.222Z,96415.72
2024-03-05T02:12:21.925Z,96421.78
2024-03-05T02:14:49.796Z,96426.13
2024-03-05T02:17:17.685Z,96427.28
2024-03-05T02:19:48.234Z,96417.94
2024-03-05T02:22:17.240Z,96425.88
2024-03-05T02:24:45.281Z,96428.69
2024-03-05T02:27:17.394Z,96429.53
2024-03-05T02:29:47.764Z,96431.38
2024-03-05T02:32:15.586Z,96435.59
2024-03-05T02:34:42.695Z,96429.44
2024-03-05T02:37:11.802Z,96431.13
2024-03-05T02:39:40.563Z,96429.44
2024-03-05T02:42:07.667Z,96435.75
2024-03-05T02:44:34.985Z,96438.41
2024-03-05T02:47:02.087Z,96441.06
2024-03-05T02:49:29.417Z,96450.81
2024-03-05T02:51:56.492Z,96457.75
2024-03-05T02:54:23.629Z,96459.38
2024-03-05T02:56:53.418Z,96452.34
2024-03-05T02:59:20.801Z,96459.22
2024-03-05T03:01:48.229Z,96460.81
2024-03-05T03:04:15.632Z,96463.41
2024-03-05T03:06:43.194Z,96465.25
2024-03-05T03:09:10.884Z,96463.56
2024-03-05T03:11:38.168Z,96467.13
2024-03-05T03:14:06.824Z,96461.31
2024-03-05T03:16:34.165Z,96468.47
2024-03-05T03:19:01.470Z,96479.75
2024-03-05T03:21:28.504Z,96473.06
2024-03-05T03:23:55.836Z,96481.84
2024-03-05T03:26:23.103Z,96475.97
2024-03-05T03:28:50.544Z,96480.53
2024-03-05T03:31:19.441Z,96482.47
2024-03-05T03:33:46.754Z,96484.25
2024-03-05T03:36:23.273Z,96492.22
2024-03-05T03:38:50.708Z,96489.72
2024-03-05T03:41:18.251Z,96489.22
2024-03-05T03:43:45.559Z,96496.50
2024-03-05T03:46:12.632Z,96487.09
2024-03-05T03:48:41.508Z,96500.06
2024-03-05T03:51:08.805Z,96502.78
2024-03-05T03:53:36.449Z,96495.34
2024-03-05T03:56:04.351Z,96502.47
2024-03-05T03:58:31.708Z,96499.38
2024-03-05T04:00:59.321Z,96508.84
2024-03-05T04:03:27.164Z,96505.50
2024-03-05T04:05:56.588Z,96514.13
2024-03-05T04:08:23.703Z,96509.13
2024-03-05T04:10:51.129Z,96513.53
2024-03-05T04:13:18.934Z,96509.41
2024-03-05T04:15:46.599Z,96519.81
2024-03-05T04:18:13.836Z,96521.56
2024-03-05T04:20:41.192Z,96525.03
2024-03-05T04:23:10.044Z,96525.97
2024-03-05T04:25:37.396Z,96522.97
2024-03-05T04:28:05.371Z,96528.31
2024-03-05T04:30:32.484Z,96526.91
2024-03-05T04:33:00.405Z,96520.22
2024-03-05T04:35:27.954Z,96530.44
2024-03-05T04:37:55.107Z,96531.34
2024-03-05T04:40:24.188Z,96538.91
2024-03-05T04:42:51.752Z,96532.81
2024-03-05T04:45:19.477Z,96537.06
2024-03-05T04:47:47.215Z,96539.50
2024-03-05T04:50:15.074Z,96536.84
2024-03-05T04:52:42.498Z,96530.53
2024-03-05T04:55:09.884Z,96528.69
2024-03-05T04:57:41.616Z,96539.06
2024-03-05T05:00:10.435Z,96539.88
2024-03-05T05:02:37.974Z,96534.88
2024-03-05T05:05:06.127Z,96541.78
2024-03-05T05:07:33.474Z,96538.28
2024-03-05T05:10:00.789Z,96550.25
2024-03-05T05:12:27.876Z,96547.69
2024-03-05T05:14:57.405Z,96545.88
2024-03-05T05:17:24.913Z,96546.56
2024-03-05T05:19:52.692Z,96557.78
2024-03-05T05:22:20.066Z,96555.97
2024-03-05T05:24:47.292Z,96551.81
2024-03-05T05:27:14.659Z,96563.00
2024-03-05T05:29:42.900Z,96559.69
2024-03-05T05:32:12.066Z,96556.38
2024-03-05T05:34:39.751Z,96562.25
2024-03-05T05:37:07.076Z,96558.69
2024-03-05T05:39:34.381Z,96558.53
2024-03-05T05:42:02.015Z,96558.47
2024-03-05T05:44:29.213Z,96566.06
2024-03-05T05:46:57.087Z,96565.00
2024-03-05T05:49:25.850Z,96571.63
2024-03-05T05:51:53.571Z,96583.44
2024-03-05T05:54:23.047Z,96573.00
2024-03-05T05:56:50.862Z,96575.34
2024-03-05T05:59:21.319Z,96579.38
2024-03-05T06:01:49.415Z,96581.66
2024-03-05T06:04:17.449Z,96590.97
2024-03-05T06:06:47.278Z,96586.53
2024-03-05T06:09:14.419Z,96602.53
2024-03-05T06:11:42.116Z,96594.81
2024-03-05T06:14:09.921Z,96597.09
2024-03-05T06:16:37.622Z,96594.28
2024-03-05T06:19:04.740Z,96595.81
2024-03-05T06:21:32.447Z,96600.81
2024-03-05T06:24:01.749Z,96603.69
2024-03-05T06:26:29.513Z,96601.41
2024-03-05T06:28:56.912Z,96610.97
2024-03-05T06:31:25.384Z,96604.38
2024-03-05T06:33:53.912Z,96606.09
2024-03-05T06:36:22.363Z,96605.97
2024-03-05T06:38:50.125Z,96605.44
2024-03-05T06:41:20.157Z,96618.97
2024-03-05T06:43:47.865Z,96611.13
2024-03-05T06:46:15.957Z,96604.19
2024-03-05T06:48:43.941Z,96614.53
2024-03-05T06:51:11.330Z,96610.13
2024-03-05T06:53:38.940Z,96613.25
2024-03-05T06:56:06.553Z,96611.72
2024-03-05T06:58:36.441Z,96615.59
2024-03-05T07:01:04.076Z,96612.75
2024-03-05T07:03:32.020Z,96612.47
2024-03-05T07:05:59.264Z,96612.13
2024-03-05T07:08:28.836Z,96625.56
2024-03-05T07:10:56.722Z,96622.59
2024-03-05T07:13:23.875Z,96623.81
2024-03-05T07:15:53.900Z,96625.13
2024-03-05T07:18:21.905Z,96626.13
2024-03-05T07:20:49.749Z,96624.75
2024-03-05T07:23:17.676Z,96635.47
2024-03-05T07:25:45.298Z,96635.84
2024-03-05T07:28:13.176Z,96632.97
2024-03-05T07:30:40.476Z,96639.72
2024-03-05T07:33:10.241Z,96641.47
2024-03-05T07:35:37.909Z,96633.41
2024-03-05T07:38:06.517Z,96645.19
2024-03-05T07:40:34.241Z,96637.84
2024-03-05T07:43:02.519Z,96636.53
2024-03-05T07:45:30.100Z,96644.53
2024-03-05T07:47:57.854Z,96649.84
2024-03-05T07:50:26.736Z,96640.56
2024-03-05T07:52:54.253Z,96645.06
2024-03-05T07:55:28.991Z,96650.91
2024-03-05T07:57:59.296Z,96653.63
2024-03-05T08:00:26.865Z,96655.13
2024-03-05T08:02:54.552Z,96656.13
2024-03-05T08:05:22.592Z,96650.97
2024-03-05T08:07:52.810Z,96654.59
2024-03-05T08:10:21.793Z,96650.50
2024-03-05T08:12:52.146Z,96656.22
2024-03-05T08:15:19.974Z,96655.94
2024-03-05T08:17:49.032Z,96659.00
2024-03-05T08:20:17.905Z,96660.53
2024-03-05T08:22:46.297Z,96659.81
2024-03-05T08:25:16.056Z,96656.97
2024-03-05T08:27:48.452Z,96669.63
2024-03-05T08:30:17.881Z,96672.69
2024-03-05T08:32:45.509Z,96664.88
2024-03-05T08:35:13.484Z,96669.41
2024-03-05T08:37:41.623Z,96669.03
2024-03-05T08:40:10.904Z,96672.50
2024-03-05T08:42:40.731Z,96666.44
2024-03-05T08:45:09.498Z,96671.53
2024-03-05T08:47:37.113Z,96669.16
2024-03-05T08:50:04.926Z,96673.19
2024-03-05T08:52:32.750Z,96677.47
2024-03-05T08:55:00.441Z,96683.78
2024-03-05T08:57:27.646Z,96679.28
2024-03-05T08:59:56.807Z,96687.94
2024-03-05T09:02:24.633Z,96680.94
2024-03-05T09:04:52.740Z,96682.22
2024-03-05T09:07:20.574Z,96690.41
2024-03-05T09:09:48.069Z,96686.28
2024-03-05T09:12:16.195Z,96692.56
2024-03-05T09:14:44.251Z,96701.69
2024-03-05T09:17:13.701Z,96693.16
2024-03-05T09:19:41.125Z,96697.91
2024-03-05T09:22:08.960Z,96692.91
2024-03-05T09:24:39.025Z,96696.81
2024-03-05T09:27:06.704Z,96701.91
2024-03-05T09:29:34.383Z,96693.84
2024-03-05T09:32:02.150Z,96699.16
2024-03-05T09:34:31.033Z,96705.13
2024-03-05T09:36:58.541Z,96715.53
2024-03-05T09:39:26.384Z,96703.28
2024-03-05T09:41:55.344Z,96711.81
2024-03-05T09:44:22.979Z,96709.09
2024-03-05T09:46:50.934Z,96712.06
2024-03-05T09:49:23.075Z,96713.50
2024-03-05T09:51:52.684Z,96710.00
2024-03-05T09:54:20.292Z,96716.63
2024-03-05T09:56:47.672Z,96716.16
2024-03-05T09:59:15.751Z,96713.47
2024-03-05T10:01:43.414Z,96722.50
2024-03-05T10:04:13.813Z,96705.16
2024-03-05T10:06:41.034Z,96715.50
2024-03-05T10:09:10.870Z,96707.13
2024-03-05T10:11:38.673Z,96716.50
2024-03-05T10:14:06.425Z,96716.88
2024-03-05T10:16:34.017Z,96715.84
2024-03-05T10:19:12.207Z,96712.66
2024-03-05T10:21:40.261Z,96719.22
2024-03-05T10:24:11.092Z,96723.25
2024-03-05T10:26:40.307Z,96713.22
2024-03-05T10:29:09.793Z,96726.63
2024-03-05T10:31:38.711Z,96714.00
2024-03-05T10:34:06.944Z,96710.63
2024-03-05T10:36:36.218Z,96717.09
2024-03-05T10:39:04.737Z,96715.69
2024-03-05T10:41:43.089Z,96708.56
2024-03-05T10:44:16.917Z,96716.03
2024-03-05T10:46:45.726Z,96710.13
2024-03-05T10:49:13.448Z,96710.66
2024-03-05T10:51:42.555Z,96717.72
2024-03-05T10:54:10.127Z,96713.56
2024-03-05T10:56:44.502Z,96709.97
2024-03-05T10:59:13.133Z,96718.28
2024-03-05T11:01:41.850Z,96716.34
2024-03-05T11:04:15.437Z,96712.31
2024-03-05T11:06:43.424Z,96713.56
2024-03-05T11:09:11.558Z,96715.91
2024-03-05T11:11:44.093Z,96710.38
2024-03-05T11:14:13.056Z,96720.16
2024-03-05T11:16:40.351Z,96721.00
2024-03-05T11:19:09.644Z,96715.91
2024-03-05T11:21:39.755Z,96719.63
2024-03-05T11:24:07.870Z,96717.16
2024-03-05T11:26:36.479Z,96712.22
2024-03-05T11:29:35.233Z,96706.25
2024-03-05T11:32:05.026Z,96718.09
2024-03-05T11:34:33.064Z,96707.69
2024-03-05T11:37:07.619Z,96702.06
2024-03-05T11:39:35.536Z,96708.16
2024-03-05T11:42:04.285Z,96707.03
2024-03-05T11:44:57.688Z,96703.63
2024-03-05T11:47:25.876Z,96713.00
2024-03-05T11:49:53.120Z,96710.88
2024-03-05T11:52:20.390Z,96708.91
2024-03-05T11:55:02.796Z,96717.13
2024-03-05T11:57:30.280Z,96703.63
2024-03-05T12:00:01.356Z,96712.97
2024-03-05T12:02:29.184Z,96705.56
2024-03-05T12:05:04.737Z,96713.97
2024-03-05T12:07:32.045Z,96707.53
2024-03-05T12:09:59.402Z,96703.94
2024-03-05T12:12:26.570Z,96705.41
2024-03-05T12:14:55.323Z,96703.28
2024-03-05T12:17:26.365Z,96709.72
2024-03-05T12:19:58.299Z,96708.44
2024-03-05T12:22:26.195Z,96720.81
2024-03-05T12:24:53.561Z,96708.25
2024-03-05T12:27:20.663Z,96708.09
2024-03-05T12:29:48.454Z,96703.56
2024-03-05T12:32:20.160Z,96696.53
2024-03-05T12:34:50.194Z,96705.53
2024-03-05T12:37:18.099Z,96709.09
2024-03-05T12:39:45.617Z,96703.84
2024-03-05T12:42:15.235Z,96712.13
2024-03-05T12:44:43.210Z,96709.44
2024-03-05T12:47:14.763Z,96709.28
2024-03-05T12:49:44.209Z,96709.81
2024-03-05T12:52:15.131Z,96707.66
2024-03-05T12:54:42.594Z,96700.38
2024-03-05T12:57:10.395Z,96697.38
2024-03-05T12:59:38.516Z,96705.53
2024-03-05T13:02:06.468Z,96701.47
2024-03-05T13:04:33.939Z,96702.44
2024-03-05T13:07:02.107Z,96700.53
2024-03-05T13:09:31.618Z,96700.47
2024-03-05T13:11:59.532Z,96705.34
2024-03-05T13:14:27.370Z,96705.34
2024-03-05T13:16:55.160Z,96702.56
2024-03-05T13:19:22.588Z,96699.03
2024-03-05T13:21:50.220Z,96704.13
2024-03-05T13:24:17.969Z,96701.22
2024-03-05T13:26:47.601Z,96696.09
2024-03-05T13:29:15.511Z,96693.81
2024-03-05T13:31:43.819Z,96700.28
2024-03-05T13:34:11.824Z,96699.13
2024-03-05T13:36:40.947Z,96694.22
2024-03-05T13:39:09.774Z,96693.25
2024-03-05T13:41:38.229Z,96695.06
2024-03-05T13:44:08.166Z,96700.72
2024-03-05T13:46:36.749Z,96698.38
2024-03-05T13:49:06.384Z,96698.25
2024-03-05T13:51:35.414Z,96696.31
2024-03-05T13:54:02.770Z,96695.03
2024-03-05T13:56:30.211Z,96704.56
2024-03-05T13:58:57.550Z,96710.50
2024-03-05T14:01:27.071Z,96713.00
2024-03-05T14:03:54.866Z,96711.81
2024-03-05T14:06:23.951Z,96715.56
2024-03-05T14:08:51.637Z,96712.41
2024-03-05T14:11:19.317Z,96702.41
2024-03-05T14:13:47.471Z,96711.06
2024-03-05T14:16:15.304Z,96718.91
2024-03-05T14:18:46.002Z,96718.09
2024-03-05T14:21:13.760Z,96713.28
2024-03-05T14:23:41.150Z,96716.75
2024-03-05T14:26:08.717Z,96715.63
2024-03-05T14:28:36.594Z,96720.75
2024-03-05T14:31:05.027Z,96715.09
2024-03-05T14:33:33.057Z,96714.53
2024-03-05T14:36:02.054Z,96718.31
2024-03-05T14:38:29.178Z,96716.81
2024-03-05T14:40:56.615Z,96718.16
2024-03-05T14:43:23.956Z,96731.31
2024-03-05T14:45:52.788Z,96723.88
2024-03-05T14:48:19.935Z,96722.28
2024-03-05T14:50:47.350Z,96716.97
2024-03-05T14:53:17.834Z,96722.16
2024-03-05T14:55:45.443Z,96727.63
2024-03-05T14:58:13.043Z,96726.41
2024-03-05T15:00:41.111Z,96730.78
2024-03-05T15:03:08.772Z,96728.13
2024-03-05T15:05:36.228Z,96728.69
2024-03-05T15:08:04.105Z,96737.88
2024-03-05T15:10:34.472Z,96728.75
2024-03-05T15:13:01.774Z,96739.91
2024-03-05T15:15:29.591Z,96733.00
2024-03-05T15:17:57.216Z,96737.94
2024-03-05T15:20:24.546Z,96755.06
2024-03-05T15:22:52.105Z,96757.94
2024-03-05T15:25:20.961Z,96764.41
2024-03-05T15:28:01.110Z,96760.25
2024-03-05T15:30:33.607Z,96757.63
2024-03-05T15:33:02.374Z,96766.94
2024-03-05T15:35:30.466Z,96757.34
2024-03-05T15:37:58.846Z,96777.69
2024-03-05T15:40:27.418Z,96770.09
2024-03-05T15:42:58.239Z,96768.66
2024-03-05T15:45:29.087Z,96771.41
2024-03-05T15:47:57.112Z,96771.50
2024-03-05T15:50:25.678Z,96776.09
2024-03-05T15:52:54.998Z,96782.09
2024-03-05T15:55:23.551Z,96784.16
2024-03-05T15:57:51.137Z,96775.28
2024-03-05T16:00:22.789Z,96791.94
2024-03-05T16:02:49.810Z,96790.50
2024-03-05T16:05:25.703Z,96803.22
2024-03-05T16:08:00.556Z,96793.34
2024-03-05T16:10:30.924Z,96792.50
2024-03-05T16:13:04.464Z,96799.34
2024-03-05T16:15:33.940Z,96802.78
2024-03-05T16:18:01.766Z,96807.63
2024-03-05T16:20:30.107Z,96809.97
2024-03-05T16:22:57.656Z,96812.19
2024-03-05T16:25:28.447Z,96814.19
2024-03-05T16:27:57.072Z,96805.63
2024-03-05T16:30:26.566Z,96807.44
2024-03-05T16:32:56.542Z,96825.06
2024-03-05T16:35:25.631Z,96817.47
2024-03-05T16:37:53.536Z,96825.19
2024-03-05T16:40:23.271Z,96828.53
2024-03-05T16:42:54.025Z,96820.06
2024-03-05T16:45:22.959Z,96828.84
2024-03-05T16:47:51.433Z,96832.03
2024-03-05T16:50:22.481Z,96833.06
2024-03-05T16:52:52.821Z,96840.19
2024-03-05T16:55:22.651Z,96850.84
2024-03-05T16:57:51.032Z,96849.16
2024-03-05T17:00:18.943Z,96853.78
2024-03-05T17:02:46.601Z,96858.69
2024-03-05T17:05:14.502Z,96852.03
2024-03-05T17:07:44.728Z,96858.09
2024-03-05T17:10:12.039Z,96853.09
2024-03-05T17:12:39.405Z,96858.41
2024-03-05T17:15:08.101Z,96870.00
2024-03-05T17:17:36.003Z,96867.72
2024-03-05T17:20:05.088Z,96870.56
2024-03-05T17:22:32.473Z,96878.13
2024-03-05T17:25:01.745Z,96879.00
2024-03-05T17:27:29.132Z,96877.69
2024-03-05T17:29:56.867Z,96880.09
2024-03-05T17:32:24.571Z,96880.94
2024-03-05T17:34:53.000Z,96886.28
2024-03-05T17:37:21.836Z,96890.03
2024-03-05T17:39:50.224Z,96892.75
2024-03-05T17:42:19.367Z,96902.94
2024-03-05T17:44:46.744Z,96897.84
2024-03-05T17:47:15.167Z,96899.53
2024-03-05T17:49:43.747Z,96900.44
2024-03-05T17:52:12.418Z,96901.50
2024-03-05T17:54:40.776Z,96906.59
2024-03-05T17:57:09.216Z,96911.81
2024-03-05T17:59:38.557Z,96912.78
2024-03-05T18:02:06.693Z,96911.09
2024-03-05T18:04:35.550Z,96912.28
2024-03-05T18:07:03.750Z,96910.19
2024-03-05T18:09:33.375Z,96916.34
2024-03-05T18:12:01.056Z,96912.06
2024-03-05T18:14:28.679Z,96915.50
2024-03-05T18:16:58.195Z,96913.63
2024-03-05T18:19:26.867Z,96920.63
2024-03-05T18:21:54.699Z,96926.38
2024-03-05T18:24:22.715Z,96923.31
2024-03-05T18:26:51.229Z,96924.59
2024-03-05T18:29:19.920Z,96926.34
2024-03-05T18:31:48.832Z,96916.78
2024-03-05T18:34:20.151Z,96923.75
2024-03-05T18:36:47.743Z,96930.00
2024-03-05T18:39:15.272Z,96926.75
2024-03-05T18:41:42.892Z,96938.16
2024-03-05T18:44:10.773Z,96934.06
2024-03-05T18:46:39.339Z,96934.47
2024-03-05T18:49:06.812Z,96933.13
2024-03-05T18:51:36.453Z,96930.00
2024-03-05T18:54:05.031Z,96934.59
2024-03-05T18:56:33.192Z,96931.13
2024-03-05T18:59:02.223Z,96927.59
2024-03-05T19:01:30.261Z,96936.13
2024-03-05T19:04:04.956Z,96930.91
2024-03-05T19:06:34.339Z,96926.78
2024-03-05T19:09:04.256Z,96929.59
2024-03-05T19:11:33.134Z,96935.72
2024-03-05T19:14:00.787Z,96931.44
2024-03-05T19:16:28.746Z,96935.81
2024-03-05T19:18:56.552Z,96937.06
2024-03-05T19:21:24.887Z,96939.13
2024-03-05T19:23:53.896Z,96932.50
2024-03-05T19:26:25.421Z,96937.13
2024-03-05T19:28:53.084Z,96934.84
2024-03-05T19:31:20.901Z,96936.00
2024-03-05T19:33:50.227Z,96946.78
2024-03-05T19:36:19.237Z,96946.78
2024-03-05T19:38:47.409Z,96947.06
2024-03-05T19:41:15.421Z,96943.81
2024-03-05T19:43:44.940Z,96937.34
2024-03-05T19:46:12.308Z,96940.88
2024-03-05T19:48:40.148Z,96940.16
2024-03-05T19:51:09.072Z,96939.19
2024-03-05T19:53:37.034Z,96944.31
2024-03-05T19:56:06.366Z,96939.84
2024-03-05T19:58:34.738Z,96946.91
2024-03-05T20:01:05.697Z,96944.59
2024-03-05T20:03:35.240Z,96954.03
2024-03-05T20:06:07.404Z,96962.53
2024-03-05T20:08:35.407Z,96961.72
2024-03-05T20:11:04.169Z,96962.28
2024-03-05T20:13:32.397Z,96967.22
2024-03-05T20:16:01.680Z,96967.59
2024-03-05T20:18:33.349Z,96967.25
2024-03-05T20:21:01.123Z,96970.03
2024-03-05T20:23:29.432Z,96967.53
2024-03-05T20:25:58.484Z,96971.88
2024-03-05T20:28:28.055Z,96965.94
2024-03-05T20:30:55.595Z,96968.63
2024-03-05T20:33:25.053Z,96970.59
2024-03-05T20:35:56.575Z,96966.22
2024-03-05T20:38:25.709Z,96968.81
2024-03-05T20:40:55.583Z,96963.72
2024-03-05T20:43:24.773Z,96963.53
2024-03-05T20:45:53.666Z,96974.84
2024-03-05T20:48:23.065Z,96974.03
2024-03-05T20:50:51.188Z,96974.56
2024-03-05T20:53:21.249Z,96974.56
2024-03-05T20:55:49.071Z,96985.34
2024-03-05T20:58:16.754Z,96982.47
2024-03-05T21:00:45.227Z,96979.97
2024-03-05T21:03:14.450Z,96980.69
2024-03-05T21:05:42.265Z,96983.19
2024-03-05T21:08:11.577Z,96980.78
2024-03-05T21:10:42.077Z,96985.50
2024-03-05T21:13:09.944Z,96980.88
2024-03-05T21:15:37.722Z,96985.50
2024-03-05T21:18:06.017Z,96991.88
2024-03-05T21:20:34.165Z,96995.59
2024-03-05T21:23:02.281Z,96992.44
2024-03-05T21:25:39.520Z,96987.69
2024-03-05T21:28:15.053Z,96999.34
2024-03-05T21:30:42.579Z,96994.44
2024-03-05T21:33:10.227Z,97005.72
2024-03-05T21:35:37.472Z,97000.81
2024-03-05T21:38:05.384Z,96997.56
2024-03-05T21:40:33.155Z,96998.88
2024-03-05T21:43:00.537Z,97002.53
2024-03-05T21:45:29.506Z,97000.91
2024-03-05T21:47:57.147Z,97006.34
2024-03-05T21:50:24.754Z,97014.47
2024-03-05T21:52:52.846Z,97011.31
2024-03-05T21:55:20.381Z,97010.78
2024-03-05T21:57:47.513Z,97012.81
2024-03-05T22:00:16.749Z,97007.22
2024-03-05T22:02:47.297Z,97011.81
2024-03-05T22:05:15.175Z,97009.38
2024-03-05T22:07:43.261Z,97015.50
2024-03-05T22:10:11.169Z,97021.00
2024-03-05T22:12:39.292Z,97009.22
2024-03-05T22:15:07.399Z,97021.50
2024-03-05T22:17:35.342Z,97027.84
2024-03-05T22:20:04.972Z,97017.81
2024-03-05T22:22:32.322Z,97017.22
2024-03-05T22:25:00.074Z,97013.97
2024-03-05T22:27:27.312Z,97015.28
2024-03-05T22:29:54.593Z,97026.56
2024-03-05T22:32:22.194Z,97018.84
2024-03-05T22:34:49.932Z,97014.78
2024-03-05T22:37:18.763Z,97021.59
2024-03-05T22:39:46.339Z,97018.34
2024-03-05T22:42:14.497Z,97020.88
2024-03-05T22:44:41.666Z,97026.53
2024-03-05T22:47:09.209Z,97029.66
2024-03-05T22:49:36.447Z,97033.72
2024-03-05T22:52:04.177Z,97038.38
2024-03-05T22:54:34.450Z,97041.19
2024-03-05T22:57:01.802Z,97051.78
2024-03-05T22:59:29.429Z,97050.09
2024-03-05T23:01:57.043Z,97047.34
2024-03-05T23:04:26.113Z,97054.72
2024-03-05T23:06:53.273Z,97049.09
2024-03-05T23:09:20.470Z,97049.47
2024-03-05T23:11:49.717Z,97052.50
2024-03-05T23:14:17.119Z,97044.41
2024-03-05T23:16:44.707Z,97043.59
2024-03-05T23:19:12.014Z,97042.66
2024-03-05T23:21:39.320Z,97048.69
2024-03-05T23:24:07.291Z,97042.88
2024-03-05T23:26:34.749Z,97039.88
2024-03-05T23:29:04.766Z,97044.59
2024-03-05T23:31:32.354Z,97051.69
2024-03-05T23:33:59.906Z,97045.75
2024-03-05T23:36:27.185Z,97043.38
2024-03-05T23:38:54.905Z,97043.63
2024-03-05T23:41:29.012Z,97047.81
2024-03-05T23:43:59.340Z,97059.00
2024-03-05T23:46:28.713Z,97053.97
2024-03-05T23:48:56.002Z,97050.56
2024-03-05T23:51:23.581Z,97057.69
2024-03-05T23:53:51.119Z,97059.09
2024-03-05T23:56:18.493Z,97054.44
2024-03-05T23:58:46.390Z,97065.22
